sensor_id;sensor_type;location;lat;lon;timestamp;pressure;altitude;pressure_sealevel;temperature;humidity
5954;BME280;3002;42.642;24.812;2023-04-25T00:01:36;95768.25;;;14.84;100.00
5954;BME280;3002;42.642;24.812;2023-04-25T00:04:02;95800.31;;;15.07;100.00
5954;BME280;3002;42.642;24.812;2023-04-25T00:06:29;95785.28;;;14.97;100.00
5954;BME280;3002;42.642;24.812;2023-04-25T00:08:57;95776.69;;;15.16;100.00
5954;BME280;3002;42.642;24.812;2023-04-25T00:11:23;95778.56;;;15.36;100.00
5954;BME280;3002;42.642;24.812;2023-04-25T00:13:49;95771.28;;;15.16;100.00
5954;BME280;3002;42.642;24.812;2023-04-25T00:16:17;95747.16;;;14.98;100.00
5954;BME280;3002;42.642;24.812;2023-04-25T00:18:43;95750.38;;;15.13;100.00
5954;BME280;3002;42.642;24.812;2023-04-25T00:21:09;95733.81;;;15.14;100.00
5954;BME280;3002;42.642;24.812;2023-04-25T00:23:35;95724.69;;;15.07;100.00
5954;BME280;3002;42.642;24.812;2023-04-25T00:26:04;95729.84;;;14.99;100.00
5954;BME280;3002;42.642;24.812;2023-04-25T00:28:29;95722.22;;;15.02;100.00
5954;BME280;3002;42.642;24.812;2023-04-25T00:30:55;95704.75;;;14.99;100.00
5954;BME280;3002;42.642;24.812;2023-04-25T00:33:20;95711.31;;;15.10;100.00
5954;BME280;3002;42.642;24.812;2023-04-25T00:35:46;95697.44;;;14.87;100.00
5954;BME280;3002;42.642;24.812;2023-04-25T00:38:11;95719.19;;;15.15;100.00
5954;BME280;3002;42.642;24.812;2023-04-25T00:40:37;95714.09;;;15.02;100.00
5954;BME280;3002;42.642;24.812;2023-04-25T00:43:02;95708.72;;;15.02;100.00
5954;BME280;3002;42.642;24.812;2023-04-25T00:45:28;95702.22;;;15.15;100.00
5954;BME280;3002;42.642;24.812;2023-04-25T00:47:57;95709.03;;;15.00;100.00
5954;BME280;3002;42.642;24.812;2023-04-25T00:50:24;95708.66;;;14.56;100.00
5954;BME280;3002;42.642;24.812;2023-04-25T00:52:50;95704.28;;;14.43;100.00
5954;BME280;3002;42.642;24.812;2023-04-25T00:55:16;95687.13;;;14.06;100.00
5954;BME280;3002;42.642;24.812;2023-04-25T00:57:41;95685.06;;;14.44;100.00
5954;BME280;3002;42.642;24.812;2023-04-25T01:00:08;95682.22;;;14.83;100.00
5954;BME280;3002;42.642;24.812;2023-04-25T01:02:39;95656.25;;;14.90;100.00
5954;BME280;3002;42.642;24.812;2023-04-25T01:05:05;95677.09;;;14.69;100.00
5954;BME280;3002;42.642;24.812;2023-04-25T01:07:31;95650.03;;;14.78;100.00
5954;BME280;3002;42.642;24.812;2023-04-25T01:09:56;95670.16;;;14.80;100.00
5954;BME280;3002;42.642;24.812;2023-04-25T01:12:23;95683.50;;;14.97;100.00
5954;BME280;3002;42.642;24.812;2023-04-25T01:14:48;95676.66;;;14.67;100.00
5954;BME280;3002;42.642;24.812;2023-04-25T01:17:14;95650.56;;;14.59;100.00
5954;BME280;3002;42.642;24.812;2023-04-25T01:19:40;95677.47;;;14.80;100.00
5954;BME280;3002;42.642;24.812;2023-04-25T01:22:06;95657.41;;;14.68;100.00
5954;BME280;3002;42.642;24.812;2023-04-25T01:24:32;95668.34;;;14.72;100.00
5954;BME280;3002;42.642;24.812;2023-04-25T01:27:00;95674.44;;;14.81;100.00
5954;BME280;3002;42.642;24.812;2023-04-25T01:29:27;95675.63;;;14.59;100.00
5954;BME280;3002;42.642;24.812;2023-04-25T01:31:53;95678.91;;;14.65;100.00
5954;BME280;3002;42.642;24.812;2023-04-25T01:34:19;95679.25;;;14.63;100.00
5954;BME280;3002;42.642;24.812;2023-04-25T01:36:48;95678.38;;;14.71;100.00
5954;BME280;3002;42.642;24.812;2023-04-25T01:39:15;95696.44;;;15.04;100.00
5954;BME280;3002;42.642;24.812;2023-04-25T01:41:41;95685.00;;;14.74;100.00
5954;BME280;3002;42.642;24.812;2023-04-25T01:44:06;95678.38;;;14.71;100.00
5954;BME280;3002;42.642;24.812;2023-04-25T01:46:33;95687.19;;;14.60;100.00
5954;BME280;3002;42.642;24.812;2023-04-25T01:48:59;95690.69;;;14.39;100.00
5954;BME280;3002;42.642;24.812;2023-04-25T01:51:25;95672.53;;;14.28;100.00
5954;BME280;3002;42.642;24.812;2023-04-25T01:53:50;95668.25;;;14.48;100.00
5954;BME280;3002;42.642;24.812;2023-04-25T01:56:18;95672.59;;;14.40;100.00
5954;BME280;3002;42.642;24.812;2023-04-25T01:58:43;95687.31;;;14.01;100.00
5954;BME280;3002;42.642;24.812;2023-04-25T02:01:09;95677.22;;;14.39;100.00
5954;BME280;3002;42.642;24.812;2023-04-25T02:03:36;95687.59;;;14.70;100.00
5954;BME280;3002;42.642;24.812;2023-04-25T02:06:01;95665.28;;;14.40;100.00
5954;BME280;3002;42.642;24.812;2023-04-25T02:08:27;95679.50;;;14.29;100.00
5954;BME280;3002;42.642;24.812;2023-04-25T02:10:52;95655.78;;;14.22;100.00
5954;BME280;3002;42.642;24.812;2023-04-25T02:13:18;95630.19;;;14.07;100.00
5954;BME280;3002;42.642;24.812;2023-04-25T02:15:43;95637.63;;;14.10;100.00
5954;BME280;3002;42.642;24.812;2023-04-25T02:18:09;95654.44;;;14.28;100.00
5954;BME280;3002;42.642;24.812;2023-04-25T02:20:36;95643.44;;;14.33;100.00
5954;BME280;3002;42.642;24.812;2023-04-25T02:23:02;95632.41;;;14.26;100.00
5954;BME280;3002;42.642;24.812;2023-04-25T02:25:28;95622.44;;;14.39;100.00
5954;BME280;3002;42.642;24.812;2023-04-25T02:27:53;95621.66;;;14.38;100.00
5954;BME280;3002;42.642;24.812;2023-04-25T02:30:19;95620.09;;;14.58;100.00
5954;BME280;3002;42.642;24.812;2023-04-25T02:32:45;95608.75;;;14.65;100.00
5954;BME280;3002;42.642;24.812;2023-04-25T02:35:11;95623.25;;;14.72;100.00
5954;BME280;3002;42.642;24.812;2023-04-25T02:37:38;95639.06;;;14.95;100.00
5954;BME280;3002;42.642;24.812;2023-04-25T02:40:04;95623.03;;;14.65;100.00
5954;BME280;3002;42.642;24.812;2023-04-25T02:42:30;95625.97;;;14.72;100.00
5954;BME280;3002;42.642;24.812;2023-04-25T02:44:56;95616.09;;;14.89;100.00
5954;BME280;3002;42.642;24.812;2023-04-25T02:47:21;95617.00;;;14.93;100.00
5954;BME280;3002;42.642;24.812;2023-04-25T02:49:47;95643.13;;;15.01;100.00
5954;BME280;3002;42.642;24.812;2023-04-25T02:52:13;95644.81;;;15.06;100.00
5954;BME280;3002;42.642;24.812;2023-04-25T02:54:39;95634.13;;;15.09;100.00
5954;BME280;3002;42.642;24.812;2023-04-25T02:57:06;95664.31;;;14.78;100.00
5954;BME280;3002;42.642;24.812;2023-04-25T02:59:31;95658.59;;;14.47;100.00
5954;BME280;3002;42.642;24.812;2023-04-25T03:01:57;95674.94;;;14.62;100.00
5954;BME280;3002;42.642;24.812;2023-04-25T03:04:22;95677.06;;;14.57;100.00
5954;BME280;3002;42.642;24.812;2023-04-25T03:06:52;95680.44;;;14.54;100.00
5954;BME280;3002;42.642;24.812;2023-04-25T03:09:18;95663.91;;;14.34;100.00
5954;BME280;3002;42.642;24.812;2023-04-25T03:11:44;95683.69;;;14.38;100.00
5954;BME280;3002;42.642;24.812;2023-04-25T03:14:10;95659.78;;;14.58;100.00
5954;BME280;3002;42.642;24.812;2023-04-25T03:16:36;95667.38;;;14.14;100.00
5954;BME280;3002;42.642;24.812;2023-04-25T03:19:02;95640.91;;;13.45;100.00
5954;BME280;3002;42.642;24.812;2023-04-25T03:21:28;95631.50;;;13.80;100.00
5954;BME280;3002;42.642;24.812;2023-04-25T03:23:53;95633.97;;;14.27;100.00
5954;BME280;3002;42.642;24.812;2023-04-25T03:26:19;95633.66;;;14.50;100.00
5954;BME280;3002;42.642;24.812;2023-04-25T03:28:44;95634.41;;;14.71;100.00
5954;BME280;3002;42.642;24.812;2023-04-25T03:31:10;95614.63;;;14.79;100.00
5954;BME280;3002;42.642;24.812;2023-04-25T03:33:35;95621.59;;;14.80;100.00
5954;BME280;3002;42.642;24.812;2023-04-25T03:36:01;95618.47;;;14.90;100.00
5954;BME280;3002;42.642;24.812;2023-04-25T03:38:26;95623.50;;;14.80;100.00
5954;BME280;3002;42.642;24.812;2023-04-25T03:40:52;95640.94;;;14.82;100.00
5954;BME280;3002;42.642;24.812;2023-04-25T03:43:18;95624.06;;;14.85;100.00
5954;BME280;3002;42.642;24.812;2023-04-25T03:45:43;95630.97;;;14.29;100.00
5954;BME280;3002;42.642;24.812;2023-04-25T03:48:09;95635.34;;;14.33;100.00
5954;BME280;3002;42.642;24.812;2023-04-25T03:50:34;95629.03;;;14.50;100.00
5954;BME280;3002;42.642;24.812;2023-04-25T03:53:00;95611.06;;;14.54;100.00
5954;BME280;3002;42.642;24.812;2023-04-25T03:55:25;95640.81;;;14.45;100.00
5954;BME280;3002;42.642;24.812;2023-04-25T03:57:51;95655.09;;;14.25;100.00
5954;BME280;3002;42.642;24.812;2023-04-25T04:00:16;95650.69;;;14.41;100.00
5954;BME280;3002;42.642;24.812;2023-04-25T04:02:42;95637.41;;;14.36;100.00
5954;BME280;3002;42.642;24.812;2023-04-25T04:05:07;95641.13;;;14.65;100.00
5954;BME280;3002;42.642;24.812;2023-04-25T04:07:33;95642.91;;;14.61;100.00
5954;BME280;3002;42.642;24.812;2023-04-25T04:10:01;95611.34;;;14.40;100.00
5954;BME280;3002;42.642;24.812;2023-04-25T04:12:27;95604.25;;;14.81;100.00
5954;BME280;3002;42.642;24.812;2023-04-25T04:14:52;95630.19;;;15.07;100.00
5954;BME280;3002;42.642;24.812;2023-04-25T04:17:18;95610.81;;;14.92;100.00
5954;BME280;3002;42.642;24.812;2023-04-25T04:19:43;95625.66;;;14.86;100.00
5954;BME280;3002;42.642;24.812;2023-04-25T04:22:09;95645.38;;;15.11;100.00
5954;BME280;3002;42.642;24.812;2023-04-25T04:24:35;95635.13;;;15.17;100.00
5954;BME280;3002;42.642;24.812;2023-04-25T04:27:01;95627.56;;;14.86;100.00
5954;BME280;3002;42.642;24.812;2023-04-25T04:29:26;95622.88;;;15.07;100.00
5954;BME280;3002;42.642;24.812;2023-04-25T04:31:52;95647.91;;;15.77;100.00
5954;BME280;3002;42.642;24.812;2023-04-25T04:34:18;95652.16;;;15.78;100.00
5954;BME280;3002;42.642;24.812;2023-04-25T04:36:47;95645.06;;;15.37;100.00
5954;BME280;3002;42.642;24.812;2023-04-25T04:39:13;95660.59;;;15.77;100.00
5954;BME280;3002;42.642;24.812;2023-04-25T04:41:39;95648.00;;;15.81;100.00
5954;BME280;3002;42.642;24.812;2023-04-25T04:44:05;95658.97;;;16.13;100.00
5954;BME280;3002;42.642;24.812;2023-04-25T04:46:32;95660.25;;;16.31;100.00
5954;BME280;3002;42.642;24.812;2023-04-25T04:49:04;95653.47;;;16.37;100.00
5954;BME280;3002;42.642;24.812;2023-04-25T04:51:30;95663.56;;;16.24;100.00
5954;BME280;3002;42.642;24.812;2023-04-25T04:53:56;95678.13;;;16.20;100.00
5954;BME280;3002;42.642;24.812;2023-04-25T04:56:24;95656.63;;;15.99;100.00
5954;BME280;3002;42.642;24.812;2023-04-25T04:58:50;95663.69;;;16.16;100.00
5954;BME280;3002;42.642;24.812;2023-04-25T05:01:16;95687.47;;;16.22;100.00
5954;BME280;3002;42.642;24.812;2023-04-25T05:03:41;95684.94;;;16.01;100.00
5954;BME280;3002;42.642;24.812;2023-04-25T05:06:07;95667.63;;;15.66;100.00
5954;BME280;3002;42.642;24.812;2023-04-25T05:08:34;95661.97;;;15.71;100.00
5954;BME280;3002;42.642;24.812;2023-04-25T05:10:59;95653.31;;;15.65;100.00
5954;BME280;3002;42.642;24.812;2023-04-25T05:13:25;95663.66;;;15.75;100.00
5954;BME280;3002;42.642;24.812;2023-04-25T05:15:50;95659.50;;;15.53;100.00
5954;BME280;3002;42.642;24.812;2023-04-25T05:18:16;95645.97;;;15.78;100.00
5954;BME280;3002;42.642;24.812;2023-04-25T05:20:41;95641.25;;;15.63;100.00
5954;BME280;3002;42.642;24.812;2023-04-25T05:23:07;95648.72;;;16.06;100.00
5954;BME280;3002;42.642;24.812;2023-04-25T05:25:32;95645.25;;;16.05;100.00
5954;BME280;3002;42.642;24.812;2023-04-25T05:27:58;95645.47;;;16.41;100.00
5954;BME280;3002;42.642;24.812;2023-04-25T05:30:24;95619.41;;;16.76;100.00
5954;BME280;3002;42.642;24.812;2023-04-25T05:32:50;95637.34;;;17.28;100.00
5954;BME280;3002;42.642;24.812;2023-04-25T05:35:15;95622.91;;;16.93;100.00
5954;BME280;3002;42.642;24.812;2023-04-25T05:37:41;95609.00;;;16.78;100.00
5954;BME280;3002;42.642;24.812;2023-04-25T05:40:07;95622.25;;;17.27;100.00
5954;BME280;3002;42.642;24.812;2023-04-25T05:42:32;95629.91;;;17.41;100.00
5954;BME280;3002;42.642;24.812;2023-04-25T05:44:58;95636.28;;;17.64;100.00
5954;BME280;3002;42.642;24.812;2023-04-25T05:47:23;95644.50;;;17.52;100.00
5954;BME280;3002;42.642;24.812;2023-04-25T05:49:49;95636.22;;;17.29;100.00
5954;BME280;3002;42.642;24.812;2023-04-25T05:52:14;95642.59;;;17.05;100.00
5954;BME280;3002;42.642;24.812;2023-04-25T05:54:40;95645.03;;;17.10;100.00
5954;BME280;3002;42.642;24.812;2023-04-25T05:57:06;95621.63;;;17.69;100.00
5954;BME280;3002;42.642;24.812;2023-04-25T05:59:31;95616.41;;;18.11;99.53
5954;BME280;3002;42.642;24.812;2023-04-25T06:01:57;95628.81;;;19.59;88.36
5954;BME280;3002;42.642;24.812;2023-04-25T06:04:22;95650.97;;;21.52;70.68
5954;BME280;3002;42.642;24.812;2023-04-25T06:06:48;95632.44;;;21.27;68.75
5954;BME280;3002;42.642;24.812;2023-04-25T06:09:14;95648.50;;;20.99;70.95
5954;BME280;3002;42.642;24.812;2023-04-25T06:11:40;95643.50;;;20.07;76.22
5954;BME280;3002;42.642;24.812;2023-04-25T06:14:05;95633.38;;;21.42;67.78
5954;BME280;3002;42.642;24.812;2023-04-25T06:16:32;95645.34;;;21.78;64.74
5954;BME280;3002;42.642;24.812;2023-04-25T06:18:57;95653.78;;;23.01;62.89
5954;BME280;3002;42.642;24.812;2023-04-25T06:21:23;95623.25;;;21.02;70.14
5954;BME280;3002;42.642;24.812;2023-04-25T06:23:48;95613.59;;;19.31;78.62
5954;BME280;3002;42.642;24.812;2023-04-25T06:26:14;95622.63;;;18.70;81.97
5954;BME280;3002;42.642;24.812;2023-04-25T06:28:39;95622.56;;;17.92;86.56
5954;BME280;3002;42.642;24.812;2023-04-25T06:31:06;95632.53;;;18.62;88.15
5954;BME280;3002;42.642;24.812;2023-04-25T06:33:31;95659.34;;;18.44;90.65
5954;BME280;3002;42.642;24.812;2023-04-25T06:35:57;95633.59;;;18.77;87.79
5954;BME280;3002;42.642;24.812;2023-04-25T06:38:22;95645.75;;;20.95;73.72
5954;BME280;3002;42.642;24.812;2023-04-25T06:40:48;95662.75;;;22.11;65.87
5954;BME280;3002;42.642;24.812;2023-04-25T06:43:14;95645.47;;;21.96;64.93
5954;BME280;3002;42.642;24.812;2023-04-25T06:45:39;95639.00;;;23.34;60.91
5954;BME280;3002;42.642;24.812;2023-04-25T06:48:05;95646.00;;;24.14;56.91
5954;BME280;3002;42.642;24.812;2023-04-25T06:50:30;95670.13;;;25.42;54.57
5954;BME280;3002;42.642;24.812;2023-04-25T06:52:56;95653.09;;;23.72;56.17
5954;BME280;3002;42.642;24.812;2023-04-25T06:55:21;95639.34;;;25.20;54.13
5954;BME280;3002;42.642;24.812;2023-04-25T06:57:47;95626.09;;;23.60;56.16
5954;BME280;3002;42.642;24.812;2023-04-25T07:00:13;95646.81;;;23.50;58.55
5954;BME280;3002;42.642;24.812;2023-04-25T07:02:38;95605.25;;;21.34;62.06
5954;BME280;3002;42.642;24.812;2023-04-25T07:05:05;95610.34;;;22.82;60.83
5954;BME280;3002;42.642;24.812;2023-04-25T07:07:31;95610.84;;;23.87;56.69
5954;BME280;3002;42.642;24.812;2023-04-25T07:09:56;95624.81;;;24.28;54.84
5954;BME280;3002;42.642;24.812;2023-04-25T07:12:22;95594.84;;;23.64;55.95
5954;BME280;3002;42.642;24.812;2023-04-25T07:14:47;95610.38;;;24.17;56.61
5954;BME280;3002;42.642;24.812;2023-04-25T07:17:13;95588.44;;;22.64;60.48
5954;BME280;3002;42.642;24.812;2023-04-25T07:19:38;95593.88;;;20.84;68.82
5954;BME280;3002;42.642;24.812;2023-04-25T07:22:06;95586.56;;;20.55;73.85
5954;BME280;3002;42.642;24.812;2023-04-25T07:24:31;95602.19;;;19.48;79.71
5954;BME280;3002;42.642;24.812;2023-04-25T07:26:57;95624.41;;;19.77;78.98
5954;BME280;3002;42.642;24.812;2023-04-25T07:29:23;95614.31;;;21.46;69.83
5954;BME280;3002;42.642;24.812;2023-04-25T07:31:48;95606.97;;;21.53;67.24
5954;BME280;3002;42.642;24.812;2023-04-25T07:34:14;95639.66;;;22.05;64.43
5954;BME280;3002;42.642;24.812;2023-04-25T07:36:39;95624.63;;;22.32;60.07
5954;BME280;3002;42.642;24.812;2023-04-25T07:39:05;95636.59;;;21.55;61.79
5954;BME280;3002;42.642;24.812;2023-04-25T07:41:30;95628.91;;;20.82;61.42
5954;BME280;3002;42.642;24.812;2023-04-25T07:43:56;95627.28;;;21.63;60.29
5954;BME280;3002;42.642;24.812;2023-04-25T07:46:21;95604.63;;;22.10;59.78
5954;BME280;3002;42.642;24.812;2023-04-25T07:48:47;95611.31;;;21.65;60.82
5954;BME280;3002;42.642;24.812;2023-04-25T07:51:12;95619.00;;;20.67;62.94
5954;BME280;3002;42.642;24.812;2023-04-25T07:53:38;95613.03;;;18.76;75.04
5954;BME280;3002;42.642;24.812;2023-04-25T07:56:03;95622.38;;;17.82;79.90
5954;BME280;3002;42.642;24.812;2023-04-25T07:58:29;95609.25;;;19.27;74.50
5954;BME280;3002;42.642;24.812;2023-04-25T08:00:55;95625.00;;;19.90;68.95
5954;BME280;3002;42.642;24.812;2023-04-25T08:03:21;95624.31;;;19.70;70.99
5954;BME280;3002;42.642;24.812;2023-04-25T08:05:46;95624.22;;;20.19;69.23
5954;BME280;3002;42.642;24.812;2023-04-25T08:08:12;95622.38;;;20.57;68.98
5954;BME280;3002;42.642;24.812;2023-04-25T08:10:38;95616.16;;;20.94;64.78
5954;BME280;3002;42.642;24.812;2023-04-25T08:13:03;95621.59;;;21.86;62.09
5954;BME280;3002;42.642;24.812;2023-04-25T08:15:29;95624.47;;;22.07;59.34
5954;BME280;3002;42.642;24.812;2023-04-25T08:17:54;95636.06;;;21.94;60.29
5954;BME280;3002;42.642;24.812;2023-04-25T08:20:20;95624.56;;;22.22;58.97
5954;BME280;3002;42.642;24.812;2023-04-25T08:22:45;95626.25;;;20.26;66.44
5954;BME280;3002;42.642;24.812;2023-04-25T08:25:11;95634.75;;;20.84;65.50
5954;BME280;3002;42.642;24.812;2023-04-25T08:27:36;95624.91;;;20.43;67.81
5954;BME280;3002;42.642;24.812;2023-04-25T08:30:03;95631.97;;;20.17;68.81
5954;BME280;3002;42.642;24.812;2023-04-25T08:32:29;95639.97;;;20.63;70.93
5954;BME280;3002;42.642;24.812;2023-04-25T08:34:54;95642.66;;;21.34;62.77
5954;BME280;3002;42.642;24.812;2023-04-25T08:37:21;95638.97;;;25.15;54.30
5954;BME280;3002;42.642;24.812;2023-04-25T08:39:46;95615.19;;;24.90;51.73
5954;BME280;3002;42.642;24.812;2023-04-25T08:42:14;95634.59;;;22.87;58.58
5954;BME280;3002;42.642;24.812;2023-04-25T08:44:40;95626.13;;;23.81;56.72
5954;BME280;3002;42.642;24.812;2023-04-25T08:47:06;95632.56;;;22.69;58.46
5954;BME280;3002;42.642;24.812;2023-04-25T08:49:32;95627.69;;;23.64;55.85
5954;BME280;3002;42.642;24.812;2023-04-25T08:52:00;95636.00;;;21.31;63.24
5954;BME280;3002;42.642;24.812;2023-04-25T08:54:27;95633.50;;;23.98;55.36
5954;BME280;3002;42.642;24.812;2023-04-25T08:56:54;95630.56;;;25.43;53.77
5954;BME280;3002;42.642;24.812;2023-04-25T08:59:21;95621.88;;;24.86;53.67
5954;BME280;3002;42.642;24.812;2023-04-25T09:01:49;95623.34;;;23.49;56.31
5954;BME280;3002;42.642;24.812;2023-04-25T09:04:15;95603.63;;;22.51;59.40
5954;BME280;3002;42.642;24.812;2023-04-25T09:06:40;95620.53;;;22.05;61.56
5954;BME280;3002;42.642;24.812;2023-04-25T09:09:08;95605.97;;;20.87;68.92
5954;BME280;3002;42.642;24.812;2023-04-25T09:11:35;95614.97;;;21.83;67.29
5954;BME280;3002;42.642;24.812;2023-04-25T09:14:18;95613.47;;;20.00;71.73
5954;BME280;3002;42.642;24.812;2023-04-25T09:19:28;95622.03;;;21.36;67.66
5954;BME280;3002;42.642;24.812;2023-04-25T09:21:55;95611.63;;;23.48;57.78
5954;BME280;3002;42.642;24.812;2023-04-25T09:24:44;95609.34;;;21.62;63.55
5954;BME280;3002;42.642;24.812;2023-04-25T09:27:12;95606.13;;;23.91;57.98
5954;BME280;3002;42.642;24.812;2023-04-25T09:29:42;95597.38;;;24.46;52.84
5954;BME280;3002;42.642;24.812;2023-04-25T09:32:18;95611.28;;;25.47;52.58
5954;BME280;3002;42.642;24.812;2023-04-25T09:34:48;95617.88;;;26.42;50.87
5954;BME280;3002;42.642;24.812;2023-04-25T09:37:28;95591.81;;;25.30;51.95
5954;BME280;3002;42.642;24.812;2023-04-25T09:39:56;95582.97;;;25.57;51.90
5954;BME280;3002;42.642;24.812;2023-04-25T09:42:23;95591.00;;;26.84;48.53
5954;BME280;3002;42.642;24.812;2023-04-25T09:44:55;95596.34;;;26.34;47.93
5954;BME280;3002;42.642;24.812;2023-04-25T09:47:23;95582.28;;;24.90;53.66
5954;BME280;3002;42.642;24.812;2023-04-25T09:49:49;95585.97;;;24.59;54.15
5954;BME280;3002;42.642;24.812;2023-04-25T09:52:18;95581.13;;;23.61;53.50
5954;BME280;3002;42.642;24.812;2023-04-25T09:54:45;95563.09;;;22.85;54.81
5954;BME280;3002;42.642;24.812;2023-04-25T09:57:22;95577.03;;;24.44;53.77
5954;BME280;3002;42.642;24.812;2023-04-25T09:59:49;95566.69;;;23.35;54.74
5954;BME280;3002;42.642;24.812;2023-04-25T10:02:18;95576.44;;;25.40;51.88
5954;BME280;3002;42.642;24.812;2023-04-25T10:04:48;95557.97;;;22.58;57.27
5954;BME280;3002;42.642;24.812;2023-04-25T10:07:16;95533.47;;;21.89;59.71
5954;BME280;3002;42.642;24.812;2023-04-25T10:09:44;95552.13;;;24.87;53.14
5954;BME280;3002;42.642;24.812;2023-04-25T10:12:12;95548.19;;;24.88;51.12
5954;BME280;3002;42.642;24.812;2023-04-25T10:14:38;95547.84;;;24.82;51.16
5954;BME280;3002;42.642;24.812;2023-04-25T10:17:03;95527.72;;;25.51;48.64
5954;BME280;3002;42.642;24.812;2023-04-25T10:19:29;95524.16;;;26.60;46.72
5954;BME280;3002;42.642;24.812;2023-04-25T10:22:07;95528.72;;;26.09;46.99
5954;BME280;3002;42.642;24.812;2023-04-25T10:24:35;95509.56;;;24.68;49.42
5954;BME280;3002;42.642;24.812;2023-04-25T10:27:01;95508.53;;;24.99;47.97
5954;BME280;3002;42.642;24.812;2023-04-25T10:29:27;95507.41;;;24.93;49.76
5954;BME280;3002;42.642;24.812;2023-04-25T10:31:53;95492.63;;;25.73;47.50
5954;BME280;3002;42.642;24.812;2023-04-25T10:34:19;95517.16;;;25.01;47.55
5954;BME280;3002;42.642;24.812;2023-04-25T10:36:51;95509.16;;;21.59;55.06
5954;BME280;3002;42.642;24.812;2023-04-25T10:39:25;95475.97;;;22.55;51.68
5954;BME280;3002;42.642;24.812;2023-04-25T10:41:59;95506.06;;;22.62;52.36
5954;BME280;3002;42.642;24.812;2023-04-25T10:44:30;95512.28;;;22.59;52.99
5954;BME280;3002;42.642;24.812;2023-04-25T10:46:57;95516.41;;;22.03;54.98
5954;BME280;3002;42.642;24.812;2023-04-25T10:49:34;95504.28;;;21.89;56.54
5954;BME280;3002;42.642;24.812;2023-04-25T10:54:56;95488.63;;;21.17;64.77
5954;BME280;3002;42.642;24.812;2023-04-25T10:57:31;95501.50;;;21.20;61.43
5954;BME280;3002;42.642;24.812;2023-04-25T11:02:31;95477.31;;;21.77;59.30
5954;BME280;3002;42.642;24.812;2023-04-25T11:09:56;95479.13;;;22.75;56.63
5954;BME280;3002;42.642;24.812;2023-04-25T11:12:24;95471.28;;;22.34;57.68
5954;BME280;3002;42.642;24.812;2023-04-25T11:14:50;95461.31;;;21.79;59.65
5954;BME280;3002;42.642;24.812;2023-04-25T11:17:15;95438.88;;;20.79;61.61
5954;BME280;3002;42.642;24.812;2023-04-25T11:19:41;95472.38;;;20.80;62.68
5954;BME280;3002;42.642;24.812;2023-04-25T11:22:06;95442.53;;;20.50;63.26
5954;BME280;3002;42.642;24.812;2023-04-25T11:24:33;95450.63;;;21.46;61.85
5954;BME280;3002;42.642;24.812;2023-04-25T11:27:00;95448.03;;;21.05;64.08
5954;BME280;3002;42.642;24.812;2023-04-25T11:29:30;95465.22;;;21.82;65.20
5954;BME280;3002;42.642;24.812;2023-04-25T11:31:56;95462.13;;;21.83;65.23
5954;BME280;3002;42.642;24.812;2023-04-25T11:34:24;95424.91;;;21.47;65.47
5954;BME280;3002;42.642;24.812;2023-04-25T11:36:50;95435.53;;;23.98;58.92
5954;BME280;3002;42.642;24.812;2023-04-25T11:39:18;95466.66;;;25.78;52.50
5954;BME280;3002;42.642;24.812;2023-04-25T11:41:44;95450.75;;;25.96;52.55
5954;BME280;3002;42.642;24.812;2023-04-25T11:44:09;95446.56;;;28.06;46.29
5954;BME280;3002;42.642;24.812;2023-04-25T11:46:35;95447.47;;;26.66;46.19
5954;BME280;3002;42.642;24.812;2023-04-25T11:49:01;95471.31;;;27.00;48.40
5954;BME280;3002;42.642;24.812;2023-04-25T11:51:26;95454.53;;;28.20;42.15
5954;BME280;3002;42.642;24.812;2023-04-25T11:53:52;95440.47;;;25.70;44.26
5954;BME280;3002;42.642;24.812;2023-04-25T11:56:18;95438.06;;;23.42;46.67
5954;BME280;3002;42.642;24.812;2023-04-25T12:01:26;95438.00;;;23.71;48.88
5954;BME280;3002;42.642;24.812;2023-04-25T12:03:52;95424.13;;;25.21;47.18
5954;BME280;3002;42.642;24.812;2023-04-25T12:06:18;95431.16;;;24.15;46.80
5954;BME280;3002;42.642;24.812;2023-04-25T12:09:03;95424.72;;;24.95;46.87
5954;BME280;3002;42.642;24.812;2023-04-25T12:11:32;95415.31;;;25.71;45.70
5954;BME280;3002;42.642;24.812;2023-04-25T12:14:04;95400.75;;;25.44;45.88
5954;BME280;3002;42.642;24.812;2023-04-25T12:16:45;95408.50;;;26.94;42.45
5954;BME280;3002;42.642;24.812;2023-04-25T12:19:15;95396.47;;;27.52;42.61
5954;BME280;3002;42.642;24.812;2023-04-25T12:21:41;95405.31;;;26.19;42.16
5954;BME280;3002;42.642;24.812;2023-04-25T12:24:15;95410.63;;;24.96;44.78
5954;BME280;3002;42.642;24.812;2023-04-25T12:26:51;95393.28;;;24.58;45.88
5954;BME280;3002;42.642;24.812;2023-04-25T12:29:24;95394.19;;;23.78;48.75
5954;BME280;3002;42.642;24.812;2023-04-25T12:31:52;95382.47;;;25.30;45.80
5954;BME280;3002;42.642;24.812;2023-04-25T12:34:18;95388.56;;;25.79;44.48
5954;BME280;3002;42.642;24.812;2023-04-25T12:36:45;95390.00;;;26.95;43.50
5954;BME280;3002;42.642;24.812;2023-04-25T12:39:23;95394.44;;;28.12;39.32
5954;BME280;3002;42.642;24.812;2023-04-25T12:41:50;95365.63;;;27.80;39.25
5954;BME280;3002;42.642;24.812;2023-04-25T12:44:16;95381.19;;;27.04;41.01
5954;BME280;3002;42.642;24.812;2023-04-25T12:46:42;95363.16;;;25.75;43.31
5954;BME280;3002;42.642;24.812;2023-04-25T12:49:07;95370.06;;;28.46;40.25
5954;BME280;3002;42.642;24.812;2023-04-25T12:51:34;95378.09;;;28.57;37.43
5954;BME280;3002;42.642;24.812;2023-04-25T12:54:00;95378.31;;;29.57;37.48
5954;BME280;3002;42.642;24.812;2023-04-25T12:56:27;95358.69;;;29.80;35.17
5954;BME280;3002;42.642;24.812;2023-04-25T12:58:53;95373.69;;;29.67;34.40
5954;BME280;3002;42.642;24.812;2023-04-25T13:01:20;95369.09;;;31.60;34.38
5954;BME280;3002;42.642;24.812;2023-04-25T13:03:46;95355.31;;;28.53;34.61
5954;BME280;3002;42.642;24.812;2023-04-25T13:06:11;95363.16;;;28.87;36.85
5954;BME280;3002;42.642;24.812;2023-04-25T13:08:38;95343.59;;;28.65;36.14
5954;BME280;3002;42.642;24.812;2023-04-25T13:11:04;95350.25;;;29.58;34.29
5954;BME280;3002;42.642;24.812;2023-04-25T13:13:30;95340.56;;;29.92;33.92
5954;BME280;3002;42.642;24.812;2023-04-25T13:15:57;95337.38;;;29.10;34.55
5954;BME280;3002;42.642;24.812;2023-04-25T13:18:22;95346.69;;;30.51;34.90